Time;durP1;ratioP1;P1;durP2;ratioP2;P2;SDS_P1;SDS_P2;PMS_P1;PMS_P2;Temp;Humidity;BMP_temperature;BMP_pressure;BME280_temperature;BME280_humidity;BME280_pressure;Samples;Min_cycle;Max_cycle;Signal;HPM_P1;HPM_P2
2023/02/03 00:00:57;;;;;;;;;;;9.00;99.90;;;;;;5057954;28;19908;-74
2023/02/03 00:03:22;;;;;;;;;;;9.00;99.90;;;;;;5075863;28;19974;-75
2023/02/03 00:05:48;;;;;;;;;;;9.10;99.90;;;;;;5075917;28;19909;-74
2023/02/03 00:08:14;;;;;;;;;;;9.10;99.90;;;;;;5075975;28;20296;-74
2023/02/03 00:10:40;;;;;;;;;;;9.10;99.90;;;;;;5075207;28;19913;-74
2023/02/03 00:13:06;;;;;;;;;;;9.10;99.90;;;;;;5075950;28;19908;-74
2023/02/03 00:15:32;;;;;;;;;;;9.10;99.90;;;;;;5075923;28;19908;-75
2023/02/03 00:17:57;;;;;;;;;;;9.10;99.90;;;;;;5057159;28;19916;-75
2023/02/03 00:20:24;;;;;;;;;;;9.10;99.90;;;;;;5075560;28;19916;-75
2023/02/03 00:22:50;;;;;;;;;;;9.10;99.90;;;;;;5057998;28;19908;-75
2023/02/03 00:25:15;;;;;;;;;;;9.10;99.90;;;;;;5075788;28;20351;-75
2023/02/03 00:27:41;;;;;;;;;;;9.10;99.90;;;;;;5075523;28;19972;-75
2023/02/03 00:30:07;;;;;;;;;;;9.10;99.90;;;;;;5057787;28;19909;-74
2023/02/03 00:32:32;;;;;;;;;;;9.10;99.90;;;;;;5057613;28;20394;-74
2023/02/03 00:34:58;;;;;;;;;;;9.10;99.90;;;;;;5057764;28;19908;-75
2023/02/03 00:37:23;;;;;;;;;;;9.10;99.90;;;;;;5075291;28;19908;-75
2023/02/03 00:39:49;;;;;;;;;;;9.10;99.90;;;;;;5075538;28;19916;-74
2023/02/03 00:42:14;;;;;;;;;;;9.10;99.90;;;;;;5075257;28;20011;-74
2023/02/03 00:44:40;;;;;;;;;;;9.10;99.90;;;;;;5075493;28;19958;-75
2023/02/03 00:47:05;;;;;;;;;;;9.00;99.90;;;;;;5057006;28;20336;-75
2023/02/03 00:49:32;;;;;;;;;;;9.00;99.90;;;;;;5074360;28;20397;-75
2023/02/03 00:51:58;;;;;;;;;;;9.00;99.90;;;;;;5057373;28;19944;-74
2023/02/03 00:54:23;;;;;;;;;;;9.00;99.90;;;;;;5075330;28;19909;-75
2023/02/03 00:56:49;;;;;;;;;;;9.00;99.90;;;;;;5075357;28;19915;-74
2023/02/03 00:59:14;;;;;;;;;;;9.00;99.90;;;;;;5075235;28;19943;-75
2023/02/03 01:01:40;;;;;;;;;;;9.00;99.90;;;;;;5075247;28;19908;-75
2023/02/03 01:04:05;;;;;;;;;;;9.00;99.90;;;;;;5056959;28;20382;-75
2023/02/03 01:06:31;;;;;;;;;;;9.00;99.90;;;;;;5057532;28;20045;-74
2023/02/03 01:08:57;;;;;;;;;;;9.10;99.90;;;;;;5057138;28;19908;-75
2023/02/03 01:11:26;;;;;;;;;;;9.00;99.90;;;;;;5057036;28;19909;-74
2023/02/03 01:13:52;;;;;;;;;;;9.00;99.90;;;;;;5056876;28;19916;-74
2023/02/03 01:16:19;;;;;;;;;;;9.00;99.90;;;;;;5074951;28;19908;-74
2023/02/03 01:18:45;;;;;;;;;;;9.00;99.90;;;;;;5074246;28;20011;-74
2023/02/03 01:21:13;;;;;;;;;;;9.00;99.90;;;;;;5073816;28;19917;-74
2023/02/03 01:23:38;;;;;;;;;;;9.00;99.90;;;;;;5056049;28;19909;-74
2023/02/03 01:26:05;;;;;;;;;;;8.90;99.90;;;;;;5074235;28;20365;-74
2023/02/03 01:28:30;;;;;;;;;;;9.00;99.90;;;;;;5074969;28;19913;-74
2023/02/03 01:30:56;;;;;;;;;;;8.90;99.90;;;;;;5074526;28;20003;-74
2023/02/03 01:33:22;;;;;;;;;;;8.90;99.90;;;;;;5074299;28;19909;-74
2023/02/03 01:35:47;;;;;;;;;;;9.00;99.90;;;;;;5056265;28;20368;-74
2023/02/03 01:38:13;;;;;;;;;;;9.40;99.90;;;;;;5056112;28;19912;-74
2023/02/03 01:40:42;;;;;;;;;;;8.90;99.90;;;;;;5074031;28;20260;-74
2023/02/03 01:43:08;;;;;;;;;;;8.90;99.90;;;;;;5074208;28;19916;-74
2023/02/03 01:45:34;;;;;;;;;;;8.90;99.90;;;;;;5074374;28;19956;-74
2023/02/03 01:47:59;;;;;;;;;;;8.90;99.90;;;;;;5073869;28;19956;-74
2023/02/03 01:50:25;;;;;;;;;;;8.80;99.90;;;;;;5056253;28;19909;-74
2023/02/03 01:52:56;;;;;;;;;;;8.90;99.90;;;;;;5073832;28;19991;-74
2023/02/03 01:55:24;;;;;;;;;;;8.90;99.90;;;;;;5073971;28;19958;-74
2023/02/03 01:57:51;;;;;;;;;;;8.90;99.90;;;;;;5073528;28;19908;-74
2023/02/03 02:00:16;;;;;;;;;;;9.00;99.90;;;;;;5073705;28;19908;-75
2023/02/03 02:02:44;;;;;;;;;;;9.00;99.90;;;;;;5055732;28;20374;-74
2023/02/03 02:05:13;;;;;;;;;;;8.90;99.90;;;;;;5055723;28;20325;-74
2023/02/03 02:07:40;;;;;;;;;;;9.70;99.90;;;;;;5073811;28;20012;-74
2023/02/03 02:10:05;;;;;;;;;;;8.90;99.90;;;;;;5073452;28;20481;-75
2023/02/03 02:12:31;;;;;;;;;;;8.90;99.90;;;;;;5073549;28;19955;-75
2023/02/03 02:14:57;;;;;;;;;;;8.90;99.90;;;;;;5055662;28;19908;-74
2023/02/03 02:17:22;;;;;;;;;;;8.90;99.90;;;;;;5073758;28;19909;-74
2023/02/03 02:20:09;;;;;;;;;;;8.90;99.90;;;;;;5086676;23;19964;-77
2023/02/03 02:22:53;;;;;;;;;;;8.90;99.90;;;;;;5093387;28;19909;-77
2023/02/03 02:25:28;;;;;;;;;;;8.90;99.90;;;;;;5075277;28;19908;-77
2023/02/03 02:28:14;;;;;;;;;;;8.90;99.90;;;;;;5094062;28;20421;-77
2023/02/03 02:30:48;;;;;;;;;;;8.90;99.90;;;;;;5075257;28;20370;-77
2023/02/03 02:33:32;;;;;;;;;;;9.00;99.90;;;;;;5094089;28;20435;-77
2023/02/03 02:36:16;;;;;;;;;;;8.90;99.90;;;;;;5097045;28;20290;-77
2023/02/03 02:38:50;;;;;;;;;;;9.00;99.90;;;;;;5096801;28;19908;-77
2023/02/03 02:41:25;;;;;;;;;;;9.00;99.90;;;;;;5096889;28;19912;-77
2023/02/03 02:44:02;;;;;;;;;;;9.10;99.90;;;;;;5096884;28;20350;-77
2023/02/03 02:46:34;;;;;;;;;;;9.10;99.90;;;;;;5096702;28;19915;-77
2023/02/03 02:49:11;;;;;;;;;;;9.10;99.90;;;;;;5078441;28;19919;-77
2023/02/03 02:51:38;;;;;;;;;;;9.10;99.90;;;;;;5078523;28;20397;-77
2023/02/03 02:54:06;;;;;;;;;;;9.20;99.90;;;;;;5096633;28;19929;-77
2023/02/03 02:56:33;;;;;;;;;;;9.20;99.90;;;;;;5096508;28;19915;-77
2023/02/03 02:59:00;;;;;;;;;;;9.20;99.90;;;;;;5096469;28;19958;-77
2023/02/03 03:01:26;;;;;;;;;;;9.30;99.90;;;;;;5096516;28;19977;-76
2023/02/03 03:03:51;;;;;;;;;;;10.40;99.90;;;;;;5078343;28;20332;-77
2023/02/03 03:06:26;;;;;;;;;;;9.30;99.90;;;;;;5078220;28;19962;-77
2023/02/03 03:08:57;;;;;;;;;;;9.40;99.90;;;;;;5096292;28;19916;-77
2023/02/03 03:11:27;;;;;;;;;;;9.40;99.90;;;;;;5078131;28;20028;-77
2023/02/03 03:13:54;;;;;;;;;;;9.40;99.90;;;;;;5096258;28;19914;-77
2023/02/03 03:16:22;;;;;;;;;;;9.40;99.90;;;;;;5096220;28;19908;-77
2023/02/03 03:18:51;;;;;;;;;;;9.50;99.90;;;;;;5096111;28;20343;-77
2023/02/03 03:21:20;;;;;;;;;;;9.40;99.90;;;;;;5077784;28;20378;-77
2023/02/03 03:23:46;;;;;;;;;;;9.40;99.90;;;;;;5096724;28;20521;-77
2023/02/03 03:26:31;;;;;;;;;;;9.40;99.90;;;;;;5095924;28;19916;-77
2023/02/03 03:29:02;;;;;;;;;;;9.40;99.90;;;;;;5077862;28;19955;-77
2023/02/03 03:31:27;;;;;;;;;;;9.30;99.90;;;;;;5077820;28;19912;-77
2023/02/03 03:33:53;;;;;;;;;;;9.50;99.90;;;;;;5077733;28;20011;-76
2023/02/03 03:36:27;;;;;;;;;;;10.10;99.90;;;;;;5095913;28;19970;-77
2023/02/03 03:39:02;;;;;;;;;;;9.30;99.90;;;;;;5095647;28;19915;-77
2023/02/03 03:41:31;;;;;;;;;;;9.40;99.90;;;;;;5095882;28;19931;-77
2023/02/03 03:43:59;;;;;;;;;;;9.40;99.90;;;;;;5095627;28;20006;-77
2023/02/03 03:46:27;;;;;;;;;;;9.40;99.90;;;;;;5094881;28;19908;-77
2023/02/03 03:48:52;;;;;;;;;;;9.40;99.90;;;;;;5077299;28;19912;-77
2023/02/03 03:51:22;;;;;;;;;;;9.40;99.90;;;;;;5095502;28;20041;-77
2023/02/03 03:53:49;;;;;;;;;;;9.40;99.90;;;;;;5095388;28;20488;-77
2023/02/03 03:56:22;;;;;;;;;;;9.50;99.90;;;;;;5095402;28;19931;-77
2023/02/03 03:58:48;;;;;;;;;;;9.50;99.90;;;;;;5095366;28;19908;-77
2023/02/03 04:01:15;;;;;;;;;;;9.50;99.90;;;;;;5077337;28;19915;-77
2023/02/03 04:03:43;;;;;;;;;;;9.60;99.90;;;;;;5095409;28;20003;-77
2023/02/03 04:06:08;;;;;;;;;;;9.60;99.90;;;;;;5095347;28;19908;-76
2023/02/03 04:08:34;;;;;;;;;;;9.60;99.90;;;;;;5077094;28;20322;-77
2023/02/03 04:10:59;;;;;;;;;;;9.60;99.90;;;;;;5095100;28;19961;-77
2023/02/03 04:13:25;;;;;;;;;;;10.00;99.90;;;;;;5095277;28;19983;-77
2023/02/03 04:15:50;;;;;;;;;;;9.60;99.90;;;;;;5077292;28;20320;-76
2023/02/03 04:18:16;;;;;;;;;;;9.70;99.90;;;;;;5095148;28;19915;-77
2023/02/03 04:20:42;;;;;;;;;;;9.70;99.90;;;;;;5094943;28;19920;-77
2023/02/03 04:23:08;;;;;;;;;;;9.70;99.90;;;;;;5095159;28;19908;-77
2023/02/03 04:25:33;;;;;;;;;;;9.70;99.90;;;;;;5076901;28;19908;-77
2023/02/03 04:27:59;;;;;;;;;;;9.70;99.90;;;;;;5095248;28;19912;-76
2023/02/03 04:30:25;;;;;;;;;;;9.70;99.90;;;;;;5095106;28;20278;-77
2023/02/03 04:32:51;;;;;;;;;;;9.70;99.90;;;;;;5094902;28;20377;-77
2023/02/03 04:35:17;;;;;;;;;;;9.80;99.90;;;;;;5094876;28;19915;-77
2023/02/03 04:37:42;;;;;;;;;;;10.30;99.90;;;;;;5094796;28;19915;-77
2023/02/03 04:40:08;;;;;;;;;;;9.80;99.90;;;;;;5076583;28;20362;-77
2023/02/03 04:42:37;;;;;;;;;;;9.70;99.90;;;;;;5094777;28;19951;-77
2023/02/03 04:45:03;;;;;;;;;;;9.70;99.90;;;;;;5076678;28;19912;-77
2023/02/03 04:47:29;;;;;;;;;;;9.70;99.90;;;;;;5076483;28;20267;-77
2023/02/03 04:49:54;;;;;;;;;;;9.70;99.90;;;;;;5094809;28;19908;-77
2023/02/03 04:52:20;;;;;;;;;;;9.70;99.90;;;;;;5095056;28;19908;-77
2023/02/03 04:54:45;;;;;;;;;;;9.70;99.90;;;;;;5094620;28;20003;-77
2023/02/03 04:57:10;;;;;;;;;;;9.70;99.90;;;;;;5094533;28;20290;-77
2023/02/03 04:59:36;;;;;;;;;;;10.10;99.90;;;;;;5076819;28;20002;-77
2023/02/03 05:02:03;;;;;;;;;;;9.70;99.90;;;;;;5094501;28;19908;-77
2023/02/03 05:04:29;;;;;;;;;;;9.70;99.90;;;;;;5094365;28;19908;-76
2023/02/03 05:06:55;;;;;;;;;;;9.70;99.90;;;;;;5094284;28;20278;-77
2023/02/03 05:09:21;;;;;;;;;;;9.70;99.90;;;;;;5094253;28;19935;-77
2023/02/03 05:11:46;;;;;;;;;;;9.70;99.90;;;;;;5094277;28;19908;-77
2023/02/03 05:14:12;;;;;;;;;;;9.60;99.90;;;;;;5094319;28;20359;-77
2023/02/03 05:16:37;;;;;;;;;;;9.70;99.90;;;;;;5093969;28;19992;-77
2023/02/03 05:19:03;;;;;;;;;;;9.70;99.90;;;;;;5094146;28;20041;-77
2023/02/03 05:21:28;;;;;;;;;;;9.70;99.90;;;;;;5076077;28;20002;-77
2023/02/03 05:23:54;;;;;;;;;;;9.70;99.90;;;;;;5094236;28;19917;-77
2023/02/03 05:26:19;;;;;;;;;;;9.70;99.90;;;;;;5076320;28;19915;-76
2023/02/03 05:28:44;;;;;;;;;;;9.70;99.90;;;;;;5094110;28;20405;-77
2023/02/03 05:31:10;;;;;;;;;;;9.60;99.90;;;;;;5094142;28;19908;-77
2023/02/03 05:33:35;;;;;;;;;;;9.60;99.90;;;;;;5094154;28;19996;-77
2023/02/03 05:36:01;;;;;;;;;;;9.70;99.90;;;;;;5075925;28;19908;-77
2023/02/03 05:38:26;;;;;;;;;;;9.70;99.90;;;;;;5093781;28;19922;-77
2023/02/03 05:43:36;;;;;;;;;;;9.60;99.90;;;;;;5094711;28;20298;-77
2023/02/03 05:46:02;;;;;;;;;;;9.60;99.90;;;;;;5076052;28;19912;-77
2023/02/03 05:48:28;;;;;;;;;;;9.60;99.90;;;;;;5094335;28;19912;-77
2023/02/03 05:50:54;;;;;;;;;;;9.60;99.90;;;;;;5077483;28;19995;-76
2023/02/03 05:53:19;;;;;;;;;;;9.60;99.90;;;;;;5077535;28;20270;-77
2023/02/03 05:55:44;;;;;;;;;;;9.60;99.90;;;;;;5095627;28;19914;-77
2023/02/03 05:58:10;;;;;;;;;;;9.70;99.90;;;;;;5077419;28;20371;-77
2023/02/03 06:00:35;;;;;;;;;;;9.60;99.90;;;;;;5095713;28;19912;-77
2023/02/03 06:03:02;;;;;;;;;;;9.60;99.90;;;;;;5095097;28;19912;-77
2023/02/03 06:05:29;;;;;;;;;;;10.10;99.90;;;;;;5095553;28;19937;-77
2023/02/03 06:07:54;;;;;;;;;;;9.80;99.90;;;;;;5095788;28;20003;-77
2023/02/03 06:10:20;;;;;;;;;;;9.60;99.90;;;;;;5099275;28;20025;-77
2023/02/03 06:12:46;;;;;;;;;;;9.50;99.90;;;;;;5099159;28;20003;-77
2023/02/03 06:15:11;;;;;;;;;;;9.60;99.90;;;;;;5098262;28;20005;-77
2023/02/03 06:17:37;;;;;;;;;;;9.80;99.90;;;;;;5099197;28;19915;-78
2023/02/03 06:20:03;;;;;;;;;;;9.50;99.90;;;;;;5098824;28;19943;-77
2023/02/03 06:22:29;;;;;;;;;;;9.50;99.90;;;;;;5098707;28;19908;-77
2023/02/03 06:24:54;;;;;;;;;;;10.00;99.90;;;;;;5080797;28;19915;-77
2023/02/03 06:27:19;;;;;;;;;;;9.50;99.90;;;;;;5098749;28;19955;-78
2023/02/03 06:29:45;;;;;;;;;;;9.50;99.90;;;;;;5098756;28;19908;-77
2023/02/03 06:32:10;;;;;;;;;;;9.50;99.90;;;;;;5098407;28;20419;-78
2023/02/03 06:34:36;;;;;;;;;;;10.00;99.90;;;;;;5098832;28;19915;-78
2023/02/03 06:37:01;;;;;;;;;;;9.50;99.90;;;;;;5098733;28;20290;-77
2023/02/03 06:39:27;;;;;;;;;;;9.50;99.90;;;;;;5098592;28;19998;-78
2023/02/03 06:41:54;;;;;;;;;;;9.80;99.90;;;;;;5079704;28;19908;-76
2023/02/03 06:44:20;;;;;;;;;;;9.50;99.90;;;;;;5097875;28;19912;-78
2023/02/03 06:46:45;;;;;;;;;;;10.70;99.90;;;;;;5098964;28;19991;-78
2023/02/03 06:49:11;;;;;;;;;;;9.50;99.90;;;;;;5098595;28;19914;-77
2023/02/03 06:51:40;;;;;;;;;;;9.50;99.90;;;;;;5080681;28;19908;-78
2023/02/03 06:54:06;;;;;;;;;;;9.50;99.90;;;;;;5080046;28;19912;-77
2023/02/03 06:56:32;;;;;;;;;;;9.40;99.90;;;;;;5098919;28;19915;-77
2023/02/03 06:58:57;;;;;;;;;;;13.00;99.90;;;;;;5098727;28;19920;-76
2023/02/03 07:01:24;;;;;;;;;;;9.50;99.90;;;;;;5080096;28;19908;-77
2023/02/03 07:03:53;;;;;;;;;;;9.40;99.90;;;;;;5098562;28;19908;-76
2023/02/03 07:06:19;;;;;;;;;;;9.50;99.90;;;;;;5079905;28;19908;-75
2023/02/03 07:08:44;;;;;;;;;;;9.50;99.90;;;;;;5098170;28;19999;-77
2023/02/03 07:11:10;;;;;;;;;;;9.50;99.90;;;;;;5079975;28;19908;-77
2023/02/03 07:13:35;;;;;;;;;;;9.40;99.90;;;;;;5079403;28;19918;-77
2023/02/03 07:16:01;;;;;;;;;;;9.50;99.90;;;;;;5097973;28;19953;-77
2023/02/03 07:18:26;;;;;;;;;;;9.40;99.90;;;;;;5080023;28;19908;-77
2023/02/03 07:20:52;;;;;;;;;;;9.40;99.90;;;;;;5096514;28;19916;-77
2023/02/03 07:23:18;;;;;;;;;;;9.50;99.90;;;;;;5097946;28;19915;-77
2023/02/03 07:25:43;;;;;;;;;;;9.40;99.90;;;;;;5079662;28;20260;-77
2023/02/03 07:28:09;;;;;;;;;;;9.40;99.90;;;;;;5079647;28;19912;-78
2023/02/03 07:30:42;;;;;;;;;;;9.50;99.90;;;;;;5098180;28;20378;-77
2023/02/03 07:33:07;;;;;;;;;;;9.40;99.90;;;;;;5079706;28;19915;-77
2023/02/03 07:35:33;;;;;;;;;;;9.40;99.90;;;;;;5097380;28;19908;-78
2023/02/03 07:38:11;;;;;;;;;;;9.40;99.90;;;;;;5097114;28;19908;-76
2023/02/03 07:40:36;;;;;;;;;;;9.40;99.90;;;;;;5096790;28;19923;-77
2023/02/03 07:43:02;;;;;;;;;;;9.40;99.90;;;;;;5097354;28;19908;-76
2023/02/03 07:45:30;;;;;;;;;;;9.40;99.90;;;;;;5079065;28;19909;-77
2023/02/03 07:47:58;;;;;;;;;;;9.40;99.90;;;;;;5096937;28;20076;-77
2023/02/03 07:50:24;;;;;;;;;;;9.20;99.90;;;;;;5096827;28;19908;-74
2023/02/03 07:52:53;;;;;;;;;;;9.40;99.90;;;;;;5096534;28;20287;-74
2023/02/03 07:55:18;;;;;;;;;;;9.50;99.90;;;;;;5097386;28;20297;-73
2023/02/03 07:57:44;;;;;;;;;;;9.40;99.90;;;;;;5096685;28;19909;-74
2023/02/03 08:00:10;;;;;;;;;;;9.50;99.90;;;;;;5096671;28;20019;-74
2023/02/03 08:02:36;;;;;;;;;;;9.50;99.90;;;;;;5096438;28;19916;-74
2023/02/03 08:05:01;;;;;;;;;;;9.50;99.90;;;;;;5078124;28;20042;-75
2023/02/03 08:07:27;;;;;;;;;;;9.50;99.90;;;;;;5096272;28;20362;-75
2023/02/03 08:09:55;;;;;;;;;;;12.50;99.90;;;;;;5096558;28;19908;-75
2023/02/03 08:12:21;;;;;;;;;;;9.50;99.90;;;;;;5078428;28;19915;-75
2023/02/03 08:14:49;;;;;;;;;;;10.10;99.90;;;;;;5096177;28;19908;-75
2023/02/03 08:17:14;;;;;;;;;;;9.50;99.90;;;;;;5077959;28;20331;-74
2023/02/03 08:19:40;;;;;;;;;;;9.50;99.90;;;;;;5077406;28;19916;-75
2023/02/03 08:22:05;;;;;;;;;;;9.50;99.90;;;;;;5078132;28;19919;-75
2023/02/03 08:24:31;;;;;;;;;;;9.50;99.90;;;;;;5078351;28;20325;-75
2023/02/03 08:27:00;;;;;;;;;;;9.60;99.90;;;;;;5078782;28;19908;-75
2023/02/03 08:29:25;;;;;;;;;;;9.50;99.90;;;;;;5095931;28;19915;-75
2023/02/03 08:31:53;;;;;;;;;;;9.60;99.90;;;;;;5095701;28;20367;-75
2023/02/03 08:34:18;;;;;;;;;;;9.60;99.90;;;;;;5077379;28;19915;-75
2023/02/03 08:36:46;;;;;;;;;;;9.60;99.90;;;;;;5096235;28;20391;-76
2023/02/03 08:39:12;;;;;;;;;;;9.70;99.90;;;;;;5077881;28;19914;-76
2023/02/03 08:41:37;;;;;;;;;;;9.70;99.90;;;;;;5095903;28;19999;-76
2023/02/03 08:44:06;;;;;;;;;;;9.70;99.90;;;;;;5095420;28;19908;-76
2023/02/03 08:46:35;;;;;;;;;;;9.70;99.90;;;;;;5095490;28;19954;-77
2023/02/03 08:49:01;;;;;;;;;;;9.80;99.90;;;;;;5078777;28;20302;-77
2023/02/03 08:51:29;;;;;;;;;;;9.80;99.90;;;;;;5095053;28;19908;-76
2023/02/03 08:53:57;;;;;;;;;;;10.40;99.90;;;;;;5096059;28;20362;-76
2023/02/03 08:56:25;;;;;;;;;;;9.80;99.90;;;;;;5077090;28;20062;-76
2023/02/03 08:58:51;;;;;;;;;;;9.80;99.90;;;;;;5095640;28;19944;-75
2023/02/03 09:01:16;;;;;;;;;;;9.90;99.90;;;;;;5094804;28;19982;-76
2023/02/03 09:03:41;;;;;;;;;;;10.20;99.90;;;;;;5095907;28;19908;-76
2023/02/03 09:06:08;;;;;;;;;;;10.00;99.90;;;;;;5095469;28;19915;-76
2023/02/03 09:08:33;;;;;;;;;;;10.00;99.90;;;;;;5095672;28;19912;-76
2023/02/03 09:10:59;;;;;;;;;;;10.00;99.90;;;;;;5094641;28;19908;-76
2023/02/03 09:13:24;;;;;;;;;;;10.70;99.90;;;;;;5095150;28;19908;-76
2023/02/03 09:15:52;;;;;;;;;;;10.10;99.90;;;;;;5095124;28;19947;-77
2023/02/03 09:18:21;;;;;;;;;;;10.10;99.90;;;;;;5077004;28;19915;-76
2023/02/03 09:20:46;;;;;;;;;;;10.10;99.90;;;;;;5077328;28;19975;-76
2023/02/03 09:23:12;;;;;;;;;;;10.20;99.90;;;;;;5077726;28;19919;-76
2023/02/03 09:25:40;;;;;;;;;;;10.20;99.90;;;;;;5096011;28;19909;-77
2023/02/03 09:28:08;;;;;;;;;;;10.20;99.90;;;;;;5077068;28;19981;-77
2023/02/03 09:30:34;;;;;;;;;;;11.80;99.90;;;;;;5095599;28;19908;-77
2023/02/03 09:32:59;;;;;;;;;;;10.30;99.90;;;;;;5095812;28;19915;-77
2023/02/03 09:35:29;;;;;;;;;;;10.30;99.90;;;;;;5095722;28;19977;-76
2023/02/03 09:37:54;;;;;;;;;;;10.30;99.90;;;;;;5077664;28;19914;-77
2023/02/03 09:40:33;;;;;;;;;;;10.50;99.90;;;;;;5077650;28;19908;-78
2023/02/03 09:43:03;;;;;;;;;;;10.30;99.90;;;;;;5078095;28;19908;-77
2023/02/03 09:45:29;;;;;;;;;;;10.40;99.90;;;;;;5099384;28;19915;-77
2023/02/03 09:48:18;;;;;;;;;;;10.40;99.90;;;;;;5099284;28;20309;-77
2023/02/03 09:50:45;;;;;;;;;;;10.40;99.90;;;;;;5088194;28;20418;-77
2023/02/03 09:53:15;;;;;;;;;;;11.40;99.90;;;;;;5099801;28;20011;-77
2023/02/03 09:55:44;;;;;;;;;;;10.50;99.90;;;;;;5099902;28;19908;-77
2023/02/03 09:58:11;;;;;;;;;;;10.50;99.90;;;;;;5080369;28;19908;-77
2023/02/03 10:00:42;;;;;;;;;;;10.50;99.90;;;;;;5099091;28;20018;-77
2023/02/03 10:03:40;;;;;;;;;;;10.50;99.90;;;;;;5099401;28;19954;-77
2023/02/03 10:06:11;;;;;;;;;;;10.40;99.90;;;;;;5028121;28;19919;-78
2023/02/03 10:08:54;;;;;;;;;;;10.50;99.90;;;;;;5100015;28;19964;-75
2023/02/03 10:11:26;;;;;;;;;;;10.50;99.90;;;;;;5098538;28;19958;-75
2023/02/03 10:14:05;;;;;;;;;;;10.50;99.90;;;;;;5099236;28;19944;-76
2023/02/03 10:16:46;;;;;;;;;;;10.50;99.90;;;;;;5080904;28;19962;-76
2023/02/03 10:19:16;;;;;;;;;;;10.50;99.90;;;;;;5080312;28;19947;-77
2023/02/03 10:21:57;;;;;;;;;;;10.50;99.90;;;;;;5080205;28;19962;-77
2023/02/03 10:24:30;;;;;;;;;;;10.50;99.90;;;;;;5079877;28;20354;-77
2023/02/03 10:26:56;;;;;;;;;;;10.50;99.90;;;;;;5098940;28;19912;-76
2023/02/03 10:29:31;;;;;;;;;;;10.50;99.90;;;;;;5098275;28;20336;-76
2023/02/03 10:32:02;;;;;;;;;;;10.50;99.90;;;;;;5079944;28;19919;-76
2023/02/03 10:34:29;;;;;;;;;;;10.50;99.90;;;;;;5097753;28;19975;-76
2023/02/03 10:37:13;;;;;;;;;;;10.50;99.90;;;;;;5078932;28;19908;-77
2023/02/03 10:39:46;;;;;;;;;;;10.50;99.90;;;;;;5080676;28;20279;-76
2023/02/03 10:42:12;;;;;;;;;;;10.50;99.90;;;;;;5079440;28;19993;-76
2023/02/03 10:44:39;;;;;;;;;;;10.50;99.90;;;;;;5098472;28;19908;-76
2023/02/03 10:47:17;;;;;;;;;;;10.60;99.90;;;;;;5098592;28;20355;-76
2023/02/03 10:49:42;;;;;;;;;;;10.50;99.90;;;;;;5080297;28;19908;-75
2023/02/03 10:52:22;;;;;;;;;;;10.50;99.90;;;;;;5097629;28;20281;-76
2023/02/03 10:54:48;;;;;;;;;;;11.20;99.90;;;;;;5097861;28;19999;-77
2023/02/03 10:57:14;;;;;;;;;;;10.60;99.90;;;;;;5098340;28;19944;-76
2023/02/03 10:59:44;;;;;;;;;;;10.60;99.90;;;;;;5079958;28;19908;-77
2023/02/03 11:02:21;;;;;;;;;;;10.60;99.90;;;;;;5080604;28;19965;-77
2023/02/03 11:04:46;;;;;;;;;;;10.60;99.90;;;;;;5079753;28;20471;-75
2023/02/03 11:07:24;;;;;;;;;;;10.80;99.90;;;;;;5097719;28;19916;-76
2023/02/03 11:09:50;;;;;;;;;;;10.70;99.90;;;;;;5097375;28;19908;-76
2023/02/03 11:12:20;;;;;;;;;;;11.40;99.90;;;;;;5097583;28;20267;-75
2023/02/03 11:14:47;;;;;;;;;;;10.80;99.90;;;;;;5097853;28;19951;-75
2023/02/03 11:17:26;;;;;;;;;;;10.70;99.90;;;;;;5097847;28;19908;-76
2023/02/03 11:19:52;;;;;;;;;;;10.70;99.90;;;;;;5079150;28;20387;-76
2023/02/03 11:22:28;;;;;;;;;;;10.70;99.90;;;;;;5097293;28;19909;-76
2023/02/03 11:24:54;;;;;;;;;;;10.60;99.90;;;;;;5097187;28;20324;-76
2023/02/03 11:27:21;;;;;;;;;;;10.60;99.90;;;;;;5097068;28;19912;-76
2023/02/03 11:29:49;;;;;;;;;;;10.60;99.90;;;;;;5097742;28;19919;-76
2023/02/03 11:32:16;;;;;;;;;;;10.70;99.90;;;;;;5078994;28;19908;-77
2023/02/03 11:34:59;;;;;;;;;;;10.70;99.90;;;;;;5078985;28;19909;-77
2023/02/03 11:37:33;;;;;;;;;;;10.70;99.90;;;;;;5097058;28;19908;-77
2023/02/03 11:40:14;;;;;;;;;;;10.70;99.90;;;;;;5097005;28;19908;-77
2023/02/03 11:43:03;;;;;;;;;;;10.80;99.90;;;;;;5096877;28;20370;-77
2023/02/03 11:45:37;;;;;;;;;;;10.80;99.90;;;;;;5079120;28;19908;-75
2023/02/03 11:48:02;;;;;;;;;;;10.90;99.90;;;;;;5078680;28;19916;-75
2023/02/03 11:50:48;;;;;;;;;;;10.80;99.90;;;;;;5096795;28;20346;-75
2023/02/03 11:53:46;;;;;;;;;;;10.80;99.90;;;;;;5096298;28;19986;-75
2023/02/03 11:56:18;;;;;;;;;;;10.80;99.90;;;;;;5034732;28;20471;-75
2023/02/03 11:58:44;;;;;;;;;;;10.70;99.90;;;;;;5078596;28;19908;-75
2023/02/03 12:01:09;;;;;;;;;;;10.70;99.90;;;;;;5078261;28;20309;-75
2023/02/03 12:03:50;;;;;;;;;;;11.30;99.90;;;;;;5078386;28;20018;-75
2023/02/03 12:06:22;;;;;;;;;;;10.70;99.90;;;;;;5096596;28;19918;-75
2023/02/03 12:08:47;;;;;;;;;;;10.70;99.90;;;;;;5096467;28;20282;-75
2023/02/03 12:11:13;;;;;;;;;;;10.70;99.90;;;;;;5078253;28;19908;-76
2023/02/03 12:13:44;;;;;;;;;;;10.60;99.90;;;;;;5078405;28;19915;-76
2023/02/03 12:16:10;;;;;;;;;;;10.60;99.90;;;;;;5096673;28;20367;-76
2023/02/03 12:18:38;;;;;;;;;;;11.10;99.90;;;;;;5078006;28;19912;-73
2023/02/03 12:21:10;;;;;;;;;;;10.50;99.90;;;;;;5077908;28;19916;-74
2023/02/03 12:23:55;;;;;;;;;;;10.50;99.90;;;;;;5077914;28;19908;-74
2023/02/03 12:26:31;;;;;;;;;;;10.60;99.90;;;;;;5077917;28;19951;-73
2023/02/03 12:29:11;;;;;;;;;;;10.50;99.90;;;;;;5096109;28;20017;-74
2023/02/03 12:31:39;;;;;;;;;;;10.40;99.90;;;;;;5095923;28;19912;-73
2023/02/03 12:34:17;;;;;;;;;;;10.40;99.90;;;;;;5096471;28;19908;-74
2023/02/03 12:36:49;;;;;;;;;;;10.30;99.90;;;;;;5077729;28;19929;-74
2023/02/03 12:39:14;;;;;;;;;;;10.70;99.90;;;;;;5077743;28;20264;-73
2023/02/03 12:41:46;;;;;;;;;;;10.10;99.90;;;;;;5095208;28;19908;-74
2023/02/03 12:44:19;;;;;;;;;;;10.10;99.90;;;;;;5095763;28;19908;-74
2023/02/03 12:46:48;;;;;;;;;;;10.00;99.90;;;;;;5096211;28;19908;-75
2023/02/03 12:49:28;;;;;;;;;;;10.00;99.90;;;;;;5095932;28;19912;-74
2023/02/03 12:52:09;;;;;;;;;;;10.00;99.90;;;;;;5095756;28;19916;-75
2023/02/03 12:54:49;;;;;;;;;;;10.00;99.90;;;;;;5095737;28;20278;-75
2023/02/03 12:57:29;;;;;;;;;;;9.90;99.90;;;;;;5077522;28;20002;-75
2023/02/03 13:00:13;;;;;;;;;;;9.70;99.90;;;;;;5077011;28;19908;-75
2023/02/03 13:03:09;;;;;;;;;;;9.80;99.90;;;;;;5077324;28;19908;-75
2023/02/03 13:05:46;;;;;;;;;;;12.90;99.90;;;;;;5060100;28;19909;-75
2023/02/03 13:08:26;;;;;;;;;;;9.80;99.90;;;;;;5076756;28;19912;-75
2023/02/03 13:11:27;;;;;;;;;;;9.80;99.90;;;;;;5094921;28;20002;-75
2023/02/03 13:13:57;;;;;;;;;;;9.70;99.90;;;;;;4997028;28;19916;-75
2023/02/03 13:16:40;;;;;;;;;;;9.70;99.90;;;;;;5081696;28;19909;-75
2023/02/03 13:19:12;;;;;;;;;;;9.70;99.90;;;;;;5094492;28;19970;-75
2023/02/03 13:21:38;;;;;;;;;;;9.70;99.90;;;;;;5095161;28;20007;-75
2023/02/03 13:24:04;;;;;;;;;;;9.70;99.90;;;;;;5094748;28;20397;-75
2023/02/03 13:26:41;;;;;;;;;;;9.70;99.90;;;;;;5095881;28;19908;-75
2023/02/03 13:29:26;;;;;;;;;;;9.80;99.90;;;;;;5076723;28;19912;-75
2023/02/03 13:31:57;;;;;;;;;;;9.80;99.90;;;;;;5095347;28;19908;-75
2023/02/03 13:34:44;;;;;;;;;;;9.80;99.90;;;;;;5077028;28;19909;-75
2023/02/03 13:37:19;;;;;;;;;;;9.90;99.90;;;;;;5095395;28;19908;-75
2023/02/03 13:39:44;;;;;;;;;;;9.90;99.90;;;;;;5076096;28;19908;-75
2023/02/03 13:42:17;;;;;;;;;;;10.00;99.90;;;;;;5076130;28;20128;-75
2023/02/03 13:44:43;;;;;;;;;;;10.00;99.90;;;;;;5094184;28;20359;-75
2023/02/03 13:47:16;;;;;;;;;;;10.10;99.90;;;;;;5093906;28;19908;-76
2023/02/03 13:49:45;;;;;;;;;;;10.00;99.90;;;;;;5075938;28;19912;-75
2023/02/03 13:52:46;;;;;;;;;;;10.10;99.90;;;;;;5075747;28;19970;-75
2023/02/03 13:55:40;;;;;;;;;;;10.10;99.90;;;;;;4995523;28;19910;-75
2023/02/03 13:58:17;;;;;;;;;;;10.00;99.90;;;;;;5057996;28;19912;-75
2023/02/03 14:00:43;;;;;;;;;;;9.90;99.90;;;;;;5075726;28;20367;-75
2023/02/03 14:03:37;;;;;;;;;;;10.00;99.90;;;;;;5077043;28;19908;-75
2023/02/03 14:06:03;;;;;;;;;;;10.00;99.90;;;;;;5075572;28;19912;-75
2023/02/03 14:08:29;;;;;;;;;;;10.00;99.90;;;;;;5093854;28;20417;-75
2023/02/03 14:11:13;;;;;;;;;;;10.00;99.90;;;;;;5075912;28;20053;-75
2023/02/03 14:13:39;;;;;;;;;;;10.00;99.90;;;;;;5093914;28;19995;-76
2023/02/03 14:16:33;;;;;;;;;;;10.00;99.90;;;;;;5075841;28;19951;-75
2023/02/03 14:21:47;;;;;;;;;;;10.00;99.90;;;;;;5091019;28;19924;-76
2023/02/03 14:24:13;;;;;;;;;;;10.00;99.90;;;;;;5093734;28;19961;-76
2023/02/03 14:26:43;;;;;;;;;;;10.00;99.90;;;;;;5075500;28;19912;-77
2023/02/03 14:29:22;;;;;;;;;;;10.00;99.90;;;;;;5076043;28;19912;-77
2023/02/03 14:31:56;;;;;;;;;;;10.00;99.90;;;;;;5097327;28;19915;-77
2023/02/03 14:34:29;;;;;;;;;;;10.00;99.90;;;;;;5079210;28;19958;-76
2023/02/03 14:36:56;;;;;;;;;;;10.00;99.90;;;;;;5078982;28;20002;-77
2023/02/03 14:39:29;;;;;;;;;;;10.00;99.90;;;;;;5097051;28;19908;-77
2023/02/03 14:42:04;;;;;;;;;;;10.00;99.90;;;;;;5096919;28;19916;-77
2023/02/03 14:44:49;;;;;;;;;;;10.00;99.90;;;;;;5097108;28;19915;-78